Time,TemperatureF,DewpointF,PressureIn,WindDirection,WindDirectionDegrees,WindSpeedMPH,WindSpeedGustMPH,Humidity,HourlyPrecipIn,Conditions,Clouds,dailyrainin,SoftwareType,DateUTC
2013-01-28 00:00:00,32.7,25.7,29.62,SE,142,0.0,2.5,75,0.00,,,0.00,VWS V14.00,2013-01-28 05:00:00,
2013-01-28 00:05:00,32.7,25.7,29.62,East,98,2.0,2.0,75,0.00,,,0.00,VWS V14.00,2013-01-28 05:05:00,
2013-01-28 00:06:00,33.1,26.4,29.62,SSE,165,0.0,1.1,76,0.00,,,0.00,VWS V14.00,2013-01-28 05:06:00,
2013-01-28 00:07:00,33.1,26.4,29.62,SSE,165,0.0,0.0,76,0.00,,,0.00,VWS V14.00,2013-01-28 05:07:00,
2013-01-28 00:08:00,32.9,26.2,29.62,SE,142,2.0,2.0,76,0.00,,,0.00,VWS V14.00,2013-01-28 05:08:00,
2013-01-28 00:09:00,32.9,26.2,29.62,SE,142,1.1,2.0,76,0.00,,,0.00,VWS V14.00,2013-01-28 05:09:00,
2013-01-28 00:10:00,33.1,26.4,29.62,SSE,165,0.0,1.1,76,0.00,,,0.00,VWS V14.00,2013-01-28 05:10:00,
2013-01-28 00:12:00,33.3,26.5,29.62,SSE,165,0.0,0.0,76,0.00,,,0.00,VWS V14.00,2013-01-28 05:12:00,
2013-01-28 00:15:00,33.1,26.4,29.62,SSE,165,0.0,1.3,76,0.00,,,0.00,VWS V14.00,2013-01-28 05:15:00,
2013-01-28 00:17:00,33.8,26.7,29.62,SE,142,2.7,2.7,75,0.00,,,0.00,VWS V14.00,2013-01-28 05:17:00,
2013-01-28 00:20:00,33.4,26.7,29.62,SSE,165,1.3,1.6,76,0.00,,,0.00,VWS V14.00,2013-01-28 05:20:00,
2013-01-28 00:22:00,34.0,26.9,29.62,SSE,165,0.0,1.6,75,0.00,,,0.00,VWS V14.00,2013-01-28 05:22:00,
2013-01-28 00:25:00,34.0,26.9,29.62,SE,142,1.6,2.7,75,0.00,,,0.00,VWS V14.00,2013-01-28 05:25:00,
2013-01-28 00:27:00,34.3,26.9,29.62,SE,142,0.0,0.0,74,0.00,,,0.00,VWS V14.00,2013-01-28 05:27:00,
2013-01-28 00:30:00,34.2,26.8,29.62,SE,142,0.0,1.6,74,0.00,,,0.00,VWS V14.00,2013-01-28 05:30:00,
2013-01-28 00:32:00,34.3,26.6,29.62,SSE,165,1.3,2.9,73,0.00,,,0.00,VWS V14.00,2013-01-28 05:32:00,
2013-01-28 00:35:00,34.3,26.9,29.62,SSE,165,0.0,0.0,74,0.00,,,0.00,VWS V14.00,2013-01-28 05:35:00,
2013-01-28 00:38:00,34.5,26.8,29.62,South,188,1.3,2.5,73,0.00,,,0.00,VWS V14.00,2013-01-28 05:38:00,
2013-01-28 00:40:00,34.3,26.6,29.62,SSE,165,0.0,2.9,73,0.00,,,0.00,VWS V14.00,2013-01-28 05:40:00,
2013-01-28 00:43:00,34.5,26.4,29.59,SSE,165,1.6,2.5,72,0.00,,,0.00,VWS V14.00,2013-01-28 05:43:00,
2013-01-28 00:45:00,34.5,26.8,29.59,ESE,120,2.0,2.7,73,0.00,,,0.00,VWS V14.00,2013-01-28 05:45:00,
2013-01-28 00:48:00,34.7,26.6,29.59,SSE,165,1.6,3.4,72,0.00,,,0.00,VWS V14.00,2013-01-28 05:48:00,
2013-01-28 00:50:00,34.5,26.4,29.59,SE,142,2.2,2.5,72,0.00,,,0.00,VWS V14.00,2013-01-28 05:50:00,
2013-01-28 00:53:00,34.7,26.6,29.59,SE,142,2.5,2.7,72,0.00,,,0.00,VWS V14.00,2013-01-28 05:53:00,
2013-01-28 00:55:00,34.7,26.6,29.59,SSE,165,2.0,3.4,72,0.00,,,0.00,VWS V14.00,2013-01-28 05:55:00,
2013-01-28 00:58:00,34.7,26.6,29.65,SSE,165,1.3,2.2,72,0.00,,,0.00,VWS V14.00,2013-01-28 05:58:00,
2013-01-28 01:00:00,34.7,26.6,29.65,East,98,2.0,2.7,72,0.00,,,0.00,VWS V14.00,2013-01-28 06:00:00,
2013-01-28 01:03:00,34.7,26.6,29.65,SSE,165,1.1,2.2,72,0.00,,,0.00,VWS V14.00,2013-01-28 06:03:00,
2013-01-28 01:05:00,34.7,26.6,29.65,SE,142,2.0,2.5,72,0.00,,,0.00,VWS V14.00,2013-01-28 06:05:00,
2013-01-28 01:08:00,34.7,26.3,29.65,SE,142,1.6,2.9,71,0.00,,,0.00,VWS V14.00,2013-01-28 06:08:00,
2013-01-28 01:10:00,34.7,26.3,29.65,SSE,165,1.3,2.2,71,0.00,,,0.00,VWS V14.00,2013-01-28 06:10:00,
2013-01-28 01:13:00,34.5,26.4,29.62,ESE,120,2.2,2.5,72,0.00,,,0.00,VWS V14.00,2013-01-28 06:13:00,
2013-01-28 01:15:00,34.7,26.3,29.62,SE,142,2.5,2.9,71,0.00,,,0.00,VWS V14.00,2013-01-28 06:15:00,
2013-01-28 01:18:00,34.5,26.4,29.62,SE,142,1.6,2.7,72,0.00,,,0.00,VWS V14.00,2013-01-28 06:18:00,
2013-01-28 01:20:00,34.5,26.4,29.62,SE,142,2.2,2.5,72,0.00,,,0.00,VWS V14.00,2013-01-28 06:20:00,
2013-01-28 01:23:00,34.5,26.4,29.62,SSE,165,1.1,1.6,72,0.00,,,0.00,VWS V14.00,2013-01-28 06:23:00,
2013-01-28 01:25:00,34.5,26.4,29.62,SSE,165,1.3,2.7,72,0.00,,,0.00,VWS V14.00,2013-01-28 06:25:00,
2013-01-28 01:28:00,34.3,26.6,29.59,SSE,165,0.0,2.0,73,0.00,,,0.00,VWS V14.00,2013-01-28 06:28:00,
2013-01-28 01:30:00,34.5,26.8,29.59,SSE,165,1.6,1.6,73,0.00,,,0.00,VWS V14.00,2013-01-28 06:30:00,
2013-01-28 01:33:00,34.3,26.6,29.59,SE,142,0.0,0.9,73,0.00,,,0.00,VWS V14.00,2013-01-28 06:33:00,
2013-01-28 01:35:00,34.3,26.6,29.59,SSE,165,0.0,2.0,73,0.00,,,0.00,VWS V14.00,2013-01-28 06:35:00,
2013-01-28 01:38:00,34.3,26.6,29.59,SE,142,0.0,1.3,73,0.00,,,0.00,VWS V14.00,2013-01-28 06:38:00,
2013-01-28 01:40:00,34.3,26.6,29.59,SE,142,1.3,1.6,73,0.00,,,0.00,VWS V14.00,2013-01-28 06:40:00,
2013-01-28 01:43:00,34.3,26.6,29.62,SE,142,0.0,0.0,73,0.00,,,0.00,VWS V14.00,2013-01-28 06:43:00,
2013-01-28 01:45:00,34.3,26.6,29.62,SE,142,0.0,1.3,73,0.00,,,0.00,VWS V14.00,2013-01-28 06:45:00,
2013-01-28 01:48:00,34.2,26.8,29.62,SE,142,0.0,0.0,74,0.00,,,0.00,VWS V14.00,2013-01-28 06:48:00,
2013-01-28 01:50:00,34.2,26.8,29.62,SE,142,0.0,0.0,74,0.00,,,0.00,VWS V14.00,2013-01-28 06:50:00,
2013-01-28 01:53:00,34.0,26.6,29.62,SSE,165,0.0,0.0,74,0.00,,,0.00,VWS V14.00,2013-01-28 06:53:00,
2013-01-28 01:55:00,34.2,26.8,29.62,SE,142,0.0,0.0,74,0.00,,,0.00,VWS V14.00,2013-01-28 06:55:00,
2013-01-28 01:58:00,33.8,26.7,29.62,SSE,165,0.0,0.0,75,0.00,,,0.00,VWS V14.00,2013-01-28 06:58:00,
2013-01-28 02:00:00,34.0,26.9,29.62,SSE,165,0.0,0.0,75,0.00,,,0.00,VWS V14.00,2013-01-28 07:00:00,
2013-01-28 02:03:00,33.8,26.7,29.62,SSE,165,0.0,0.0,75,0.00,,,0.00,VWS V14.00,2013-01-28 07:03:00,
2013-01-28 02:05:00,33.8,26.7,29.62,SSE,165,0.0,0.0,75,0.00,,,0.00,VWS V14.00,2013-01-28 07:05:00,
2013-01-28 02:08:00,33.8,27.4,29.62,SSE,165,0.0,0.0,77,0.00,,,0.00,VWS V14.00,2013-01-28 07:08:00,
2013-01-28 02:10:00,33.8,27.0,29.62,SSE,165,0.0,0.0,76,0.00,,,0.00,VWS V14.00,2013-01-28 07:10:00,
2013-01-28 02:13:00,33.6,27.2,29.59,SSE,165,0.0,1.3,77,0.00,,,0.00,VWS V14.00,2013-01-28 07:13:00,
2013-01-28 02:15:00,33.6,27.2,29.59,SSE,165,0.0,0.0,77,0.00,,,0.00,VWS V14.00,2013-01-28 07:15:00,
2013-01-28 02:18:00,33.6,27.5,29.59,SSE,165,0.0,1.3,78,0.00,,,0.00,VWS V14.00,2013-01-28 07:18:00,
2013-01-28 02:20:00,33.6,27.2,29.59,SSE,165,0.0,1.3,77,0.00,,,0.00,VWS V14.00,2013-01-28 07:20:00,
2013-01-28 02:23:00,33.6,27.5,29.59,SSE,165,0.0,0.0,78,0.00,,,0.00,VWS V14.00,2013-01-28 07:23:00,
2013-01-28 02:25:00,33.6,27.5,29.59,SSE,165,0.0,1.3,78,0.00,,,0.00,VWS V14.00,2013-01-28 07:25:00,
2013-01-28 02:28:00,33.6,27.5,29.62,SSE,165,0.0,0.0,78,0.00,,,0.00,VWS V14.00,2013-01-28 07:28:00,
2013-01-28 02:30:00,33.6,27.5,29.62,SSE,165,0.0,0.0,78,0.00,,,0.00,VWS V14.00,2013-01-28 07:30:00,
2013-01-28 02:33:00,33.8,27.7,29.62,SSE,165,0.0,0.0,78,0.00,,,0.00,VWS V14.00,2013-01-28 07:33:00,
2013-01-28 02:35:00,33.6,27.5,29.62,SSE,165,0.0,0.0,78,0.00,,,0.00,VWS V14.00,2013-01-28 07:35:00,
2013-01-28 02:38:00,33.8,27.7,29.62,SSE,165,1.3,2.0,78,0.00,,,0.00,VWS V14.00,2013-01-28 07:38:00,
2013-01-28 02:40:00,33.8,27.7,29.62,SSE,165,1.1,1.1,78,0.00,,,0.00,VWS V14.00,2013-01-28 07:40:00,
2013-01-28 02:44:00,33.8,27.7,29.62,SSE,165,0.0,1.6,78,0.00,,,0.00,VWS V14.00,2013-01-28 07:44:00,
2013-01-28 02:45:00,33.8,27.7,29.62,SSE,165,1.1,2.0,78,0.00,,,0.00,VWS V14.00,2013-01-28 07:45:00,
2013-01-28 02:49:00,33.8,28.0,29.62,SSE,165,0.0,1.3,79,0.00,,,0.00,VWS V14.00,2013-01-28 07:49:00,
2013-01-28 02:50:00,33.8,27.7,29.62,SSE,165,0.0,1.6,78,0.00,,,0.00,VWS V14.00,2013-01-28 07:50:00,
2013-01-28 02:54:00,33.8,27.7,29.62,SSE,165,0.0,0.0,78,0.00,,,0.00,VWS V14.00,2013-01-28 07:54:00,
2013-01-28 02:55:00,33.8,28.0,29.62,SSE,165,0.0,1.3,79,0.00,,,0.00,VWS V14.00,2013-01-28 07:55:00,
2013-01-28 02:59:00,33.8,27.7,29.62,SSE,165,0.0,0.0,78,0.00,,,0.00,VWS V14.00,2013-01-28 07:59:00,
2013-01-28 03:00:00,33.8,27.7,29.62,SSE,165,0.0,0.0,78,0.00,,,0.00,VWS V14.00,2013-01-28 08:00:00,
2013-01-28 03:04:00,34.0,27.9,29.62,SE,142,2.0,2.0,78,0.00,,,0.00,VWS V14.00,2013-01-28 08:04:00,
2013-01-28 03:05:00,33.8,27.7,29.62,SSE,165,0.0,0.0,78,0.00,,,0.00,VWS V14.00,2013-01-28 08:05:00,
2013-01-28 03:09:00,34.0,28.2,29.59,SE,142,1.3,2.7,79,0.00,,,0.00,VWS V14.00,2013-01-28 08:09:00,
2013-01-28 03:10:00,34.0,27.9,29.62,SE,142,1.1,2.0,78,0.00,,,0.00,VWS V14.00,2013-01-28 08:10:00,
2013-01-28 03:14:00,34.2,28.3,29.59,SSE,165,0.0,2.0,79,0.00,,,0.00,VWS V14.00,2013-01-28 08:14:00,
2013-01-28 03:15:00,34.0,28.2,29.59,SE,142,1.3,2.7,79,0.00,,,0.00,VWS V14.00,2013-01-28 08:15:00,
2013-01-28 03:19:00,34.2,28.0,29.59,SSE,165,1.3,2.0,78,0.00,,,0.00,VWS V14.00,2013-01-28 08:19:00,
2013-01-28 03:20:00,34.2,28.3,29.59,SSE,165,0.0,2.0,79,0.00,,,0.00,VWS V14.00,2013-01-28 08:20:00,
2013-01-28 03:24:00,34.3,28.2,29.59,SSE,165,0.0,2.2,78,0.00,,,0.00,VWS V14.00,2013-01-28 08:24:00,
2013-01-28 03:25:00,34.2,28.0,29.59,SSE,165,1.3,2.0,78,0.00,,,0.00,VWS V14.00,2013-01-28 08:25:00,
2013-01-28 03:29:00,34.3,27.9,29.59,SE,142,1.1,1.3,77,0.00,,,0.00,VWS V14.00,2013-01-28 08:29:00,
2013-01-28 03:30:00,34.3,28.2,29.59,SSE,165,0.0,2.2,78,0.00,,,0.00,VWS V14.00,2013-01-28 08:30:00,
2013-01-28 03:34:00,34.5,28.1,29.59,SSE,165,2.0,2.2,77,0.00,,,0.00,VWS V14.00,2013-01-28 08:34:00,
2013-01-28 03:35:00,34.3,27.9,29.59,SE,142,1.1,1.3,77,0.00,,,0.00,VWS V14.00,2013-01-28 08:35:00,
2013-01-28 03:39:00,34.5,28.1,29.59,South,188,0.0,0.0,77,0.00,,,0.00,VWS V14.00,2013-01-28 08:39:00,
2013-01-28 03:40:00,34.5,28.1,29.59,SSE,165,2.0,2.2,77,0.00,,,0.00,VWS V14.00,2013-01-28 08:40:00,
2013-01-28 03:44:00,34.5,28.1,29.59,South,188,0.0,0.0,77,0.00,,,0.00,VWS V14.00,2013-01-28 08:44:00,
2013-01-28 03:45:00,34.5,28.1,29.59,South,188,0.0,2.2,77,0.00,,,0.00,VWS V14.00,2013-01-28 08:45:00,
2013-01-28 03:49:00,34.7,27.9,29.59,SE,142,1.6,1.6,76,0.00,,,0.00,VWS V14.00,2013-01-28 08:49:00,
2013-01-28 03:50:00,34.5,28.1,29.59,South,188,0.0,0.0,77,0.00,,,0.00,VWS V14.00,2013-01-28 08:50:00,
2013-01-28 03:54:00,34.7,27.9,29.59,SSE,165,0.0,0.0,76,0.00,,,0.00,VWS V14.00,2013-01-28 08:54:00,
2013-01-28 03:55:00,34.7,27.9,29.59,SE,142,1.6,2.0,76,0.00,,,0.00,VWS V14.00,2013-01-28 08:55:00,
2013-01-28 03:59:00,34.7,27.9,29.59,SSE,165,1.3,1.3,76,0.00,,,0.00,VWS V14.00,2013-01-28 08:59:00,
2013-01-28 04:00:00,34.7,27.9,29.59,SSE,165,0.0,1.6,76,0.00,,,0.00,VWS V14.00,2013-01-28 09:00:00,
2013-01-28 04:04:00,34.7,27.9,29.59,South,188,0.0,1.3,76,0.00,,,0.00,VWS V14.00,2013-01-28 09:04:00,
2013-01-28 04:05:00,34.7,27.9,29.59,SSE,165,1.1,2.0,76,0.00,,,0.00,VWS V14.00,2013-01-28 09:05:00,
2013-01-28 04:10:00,34.7,27.9,29.59,SSE,165,0.0,0.0,76,0.00,,,0.00,VWS V14.00,2013-01-28 09:10:00,
2013-01-28 04:15:00,34.5,28.1,29.59,South,188,0.9,2.0,77,0.00,,,0.00,VWS V14.00,2013-01-28 09:15:00,
2013-01-28 04:20:00,34.3,27.9,29.59,SSE,165,1.1,1.3,77,0.00,,,0.00,VWS V14.00,2013-01-28 09:20:00,
2013-01-28 04:25:00,34.3,28.2,29.59,South,188,0.0,1.1,78,0.00,,,0.00,VWS V14.00,2013-01-28 09:25:00,
2013-01-28 04:30:00,34.2,28.3,29.59,SE,142,1.6,1.6,79,0.00,,,0.00,VWS V14.00,2013-01-28 09:30:00,
2013-01-28 04:35:00,34.0,28.5,29.59,SSE,165,1.6,1.6,80,0.04,,,0.04,VWS V14.00,2013-01-28 09:35:00,
2013-01-28 04:40:00,33.8,28.9,29.59,SE,142,1.6,2.5,82,0.04,,,0.04,VWS V14.00,2013-01-28 09:40:00,
2013-01-28 04:45:00,33.8,28.9,29.59,SSE,165,0.0,0.0,82,0.04,,,0.04,VWS V14.00,2013-01-28 09:45:00,
2013-01-28 04:50:00,33.8,29.2,29.59,SSE,165,2.0,2.0,83,0.04,,,0.04,VWS V14.00,2013-01-28 09:50:00,
2013-01-28 04:55:00,33.8,29.8,29.59,SSE,165,0.0,1.1,85,0.04,,,0.04,VWS V14.00,2013-01-28 09:55:00,
2013-01-28 05:00:00,33.6,30.2,29.59,SE,142,2.2,2.9,87,0.04,,,0.04,VWS V14.00,2013-01-28 10:00:00,
2013-01-28 05:05:00,33.6,30.2,29.59,SE,142,1.3,2.0,87,0.04,,,0.04,VWS V14.00,2013-01-28 10:05:00,
2013-01-28 05:10:00,33.6,30.2,29.59,SSE,165,0.0,2.5,87,0.04,,,0.04,VWS V14.00,2013-01-28 10:10:00,
2013-01-28 05:15:00,33.6,30.2,29.59,SSE,165,2.7,2.7,87,0.04,,,0.04,VWS V14.00,2013-01-28 10:15:00,
2013-01-28 05:20:00,33.6,30.2,29.59,SSW,210,1.1,2.5,87,0.04,,,0.04,VWS V14.00,2013-01-28 10:20:00,
2013-01-28 05:21:00,33.6,30.5,29.59,SSE,165,2.0,2.0,88,0.04,,,0.04,VWS V14.00,2013-01-28 10:21:00,
2013-01-28 05:25:00,33.6,30.5,29.59,SSE,165,1.3,2.9,88,0.04,,,0.04,VWS V14.00,2013-01-28 10:25:00,
2013-01-28 05:26:00,33.6,30.5,29.59,South,188,0.0,1.3,88,0.04,,,0.04,VWS V14.00,2013-01-28 10:26:00,
2013-01-28 05:30:00,33.6,30.5,29.59,SSE,165,1.1,2.0,88,0.04,,,0.04,VWS V14.00,2013-01-28 10:30:00,
2013-01-28 05:31:00,33.6,30.5,29.59,SE,142,0.0,0.0,88,0.04,,,0.04,VWS V14.00,2013-01-28 10:31:00,
2013-01-28 05:35:00,33.6,30.5,29.59,SSE,165,0.0,1.3,88,0.04,,,0.04,VWS V14.00,2013-01-28 10:35:00,
2013-01-28 05:36:00,33.6,30.5,29.59,ESE,120,0.0,0.0,88,0.00,,,0.04,VWS V14.00,2013-01-28 10:36:00,
2013-01-28 05:40:00,33.6,30.5,29.59,SE,142,0.0,1.6,88,0.04,,,0.04,VWS V14.00,2013-01-28 10:40:00,
2013-01-28 05:41:00,33.6,30.7,29.56,South,188,0.0,0.0,89,0.00,,,0.04,VWS V14.00,2013-01-28 10:41:00,
2013-01-28 05:45:00,33.6,30.7,29.56,South,188,0.0,0.0,89,0.00,,,0.04,VWS V14.00,2013-01-28 10:45:00,
2013-01-28 05:46:00,33.6,30.7,29.56,SSE,165,0.0,0.0,89,0.00,,,0.04,VWS V14.00,2013-01-28 10:46:00,
2013-01-28 05:50:00,33.6,30.7,29.56,South,188,0.0,0.0,89,0.00,,,0.04,VWS V14.00,2013-01-28 10:50:00,
2013-01-28 05:51:00,33.6,30.7,29.56,South,188,0.0,0.0,89,0.00,,,0.04,VWS V14.00,2013-01-28 10:51:00,
2013-01-28 05:55:00,33.6,30.7,29.56,SSW,210,0.0,0.0,89,0.00,,,0.04,VWS V14.00,2013-01-28 10:55:00,
2013-01-28 05:56:00,33.6,30.5,29.59,South,188,0.0,0.0,88,0.00,,,0.04,VWS V14.00,2013-01-28 10:56:00,
2013-01-28 06:00:00,33.6,30.7,29.59,South,188,0.0,0.0,89,0.00,,,0.04,VWS V14.00,2013-01-28 11:00:00,
2013-01-28 06:04:00,33.6,30.7,29.59,West,278,0.0,0.0,89,0.00,,,0.04,VWS V14.00,2013-01-28 11:04:00,
2013-01-28 06:05:00,33.6,30.5,29.59,WNW,300,0.0,0.0,88,0.00,,,0.04,VWS V14.00,2013-01-28 11:05:00,
2013-01-28 06:06:00,33.6,30.5,29.59,West,278,0.0,0.0,88,0.00,,,0.04,VWS V14.00,2013-01-28 11:06:00,
2013-01-28 06:07:00,33.6,30.7,29.59,West,278,0.0,0.0,89,0.00,,,0.04,VWS V14.00,2013-01-28 11:07:00,
2013-01-28 06:08:00,33.6,30.7,29.59,West,278,0.0,0.0,89,0.00,,,0.04,VWS V14.00,2013-01-28 11:08:00,
2013-01-28 06:09:00,33.6,30.7,29.59,SSE,165,0.0,0.0,89,0.00,,,0.04,VWS V14.00,2013-01-28 11:09:00,
2013-01-28 06:10:00,33.6,30.7,29.59,West,278,0.0,0.0,89,0.00,,,0.04,VWS V14.00,2013-01-28 11:10:00,
2013-01-28 06:14:00,33.6,30.7,29.59,SSE,165,0.0,0.0,89,0.00,,,0.04,VWS V14.00,2013-01-28 11:14:00,
2013-01-28 06:15:00,33.6,30.7,29.59,SSE,165,0.0,0.0,89,0.00,,,0.04,VWS V14.00,2013-01-28 11:15:00,
2013-01-28 06:19:00,33.6,30.7,29.59,SSE,165,0.0,0.0,89,0.00,,,0.04,VWS V14.00,2013-01-28 11:19:00,
2013-01-28 06:20:00,33.6,30.7,29.59,ESE,120,0.0,0.0,89,0.00,,,0.04,VWS V14.00,2013-01-28 11:20:00,
2013-01-28 06:24:00,33.6,31.0,29.59,SSW,210,0.0,0.0,90,0.00,,,0.04,VWS V14.00,2013-01-28 11:24:00,
2013-01-28 06:25:00,33.6,30.7,29.59,SSE,165,0.0,0.0,89,0.00,,,0.04,VWS V14.00,2013-01-28 11:25:00,
2013-01-28 06:29:00,33.6,31.0,29.59,South,188,0.0,0.0,90,0.00,,,0.04,VWS V14.00,2013-01-28 11:29:00,
2013-01-28 06:30:00,33.6,31.0,29.59,SSW,210,0.0,0.0,90,0.00,,,0.04,VWS V14.00,2013-01-28 11:30:00,
2013-01-28 06:34:00,33.6,31.0,29.59,SSE,165,0.0,0.0,90,0.00,,,0.04,VWS V14.00,2013-01-28 11:34:00,
2013-01-28 06:39:00,33.8,30.9,29.59,SE,142,0.0,0.0,89,0.00,,,0.04,VWS V14.00,2013-01-28 11:39:00,
2013-01-28 06:40:00,33.6,31.0,29.59,SSE,165,0.0,0.0,90,0.00,,,0.04,VWS V14.00,2013-01-28 11:40:00,
2013-01-28 06:44:00,33.8,30.9,29.59,SE,142,0.0,0.0,89,0.00,,,0.04,VWS V14.00,2013-01-28 11:44:00,
2013-01-28 06:45:00,33.8,30.9,29.59,SE,142,0.0,0.0,89,0.00,,,0.04,VWS V14.00,2013-01-28 11:45:00,
2013-01-28 06:49:00,33.8,30.9,29.59,SSE,165,0.0,2.5,89,0.00,,,0.04,VWS V14.00,2013-01-28 11:49:00,
2013-01-28 06:50:00,33.8,30.9,29.59,SE,142,0.0,0.0,89,0.00,,,0.04,VWS V14.00,2013-01-28 11:50:00,
2013-01-28 06:54:00,33.8,30.9,29.59,SE,142,0.0,1.6,89,0.00,,,0.04,VWS V14.00,2013-01-28 11:54:00,
2013-01-28 06:55:00,33.8,30.9,29.59,SSE,165,0.0,2.5,89,0.00,,,0.04,VWS V14.00,2013-01-28 11:55:00,
2013-01-28 06:59:00,33.8,30.9,29.59,SSE,165,0.0,0.0,89,0.00,,,0.04,VWS V14.00,2013-01-28 11:59:00,
2013-01-28 07:00:00,33.8,30.9,29.59,SE,142,0.0,1.6,89,0.00,,,0.04,VWS V14.00,2013-01-28 12:00:00,
2013-01-28 07:04:00,33.8,30.9,29.59,West,278,0.0,0.0,89,0.00,,,0.04,VWS V14.00,2013-01-28 12:04:00,
2013-01-28 07:05:00,33.8,30.9,29.59,SSE,165,0.0,2.5,89,0.00,,,0.04,VWS V14.00,2013-01-28 12:05:00,
2013-01-28 07:10:00,33.8,30.9,29.59,SW,232,0.0,0.0,89,0.00,,,0.04,VWS V14.00,2013-01-28 12:10:00,
2013-01-28 07:15:00,33.8,30.9,29.59,West,278,0.0,0.0,89,0.00,,,0.04,VWS V14.00,2013-01-28 12:15:00,
2013-01-28 07:20:00,33.8,30.9,29.59,SSE,165,0.0,0.0,89,0.00,,,0.04,VWS V14.00,2013-01-28 12:20:00,
2013-01-28 07:25:00,33.8,30.9,29.59,SSE,165,0.0,0.0,89,0.00,,,0.04,VWS V14.00,2013-01-28 12:25:00,
2013-01-28 07:30:00,33.8,30.9,29.59,SSE,165,0.0,0.0,89,0.00,,,0.04,VWS V14.00,2013-01-28 12:30:00,
2013-01-28 07:35:00,34.0,31.1,29.59,SSE,165,0.0,0.0,89,0.00,,,0.04,VWS V14.00,2013-01-28 12:35:00,
2013-01-28 07:40:00,34.0,31.1,29.59,West,278,0.0,0.0,89,0.00,,,0.04,VWS V14.00,2013-01-28 12:40:00,
2013-01-28 07:45:00,34.0,31.1,29.59,SE,142,0.0,0.0,89,0.00,,,0.04,VWS V14.00,2013-01-28 12:45:00,
2013-01-28 07:50:00,34.0,31.4,29.59,South,188,0.0,0.0,90,0.00,,,0.04,VWS V14.00,2013-01-28 12:50:00,
2013-01-28 07:55:00,34.2,31.5,29.59,SSE,165,0.0,0.0,90,0.00,,,0.04,VWS V14.00,2013-01-28 12:55:00,
2013-01-28 08:00:00,34.2,31.5,29.59,SE,142,0.0,0.0,90,0.00,,,0.04,VWS V14.00,2013-01-28 13:00:00,
2013-01-28 08:05:00,34.3,31.7,29.59,South,188,0.0,0.0,90,0.00,,,0.04,VWS V14.00,2013-01-28 13:05:00,
2013-01-28 08:10:00,34.3,31.4,29.59,SW,232,0.0,0.0,89,0.00,,,0.04,VWS V14.00,2013-01-28 13:10:00,
2013-01-28 08:15:00,34.5,31.9,29.59,SSW,210,2.0,4.0,90,0.00,,,0.04,VWS V14.00,2013-01-28 13:15:00,
2013-01-28 08:20:00,34.5,31.9,29.59,South,188,1.6,3.6,90,0.00,,,0.04,VWS V14.00,2013-01-28 13:20:00,
2013-01-28 08:21:00,34.7,32.1,29.59,SSE,165,2.0,2.0,90,0.00,,,0.04,VWS V14.00,2013-01-28 13:21:00,
2013-01-28 08:25:00,34.5,31.9,29.59,SE,142,1.6,4.0,90,0.00,,,0.04,VWS V14.00,2013-01-28 13:25:00,
2013-01-28 08:26:00,34.9,32.0,29.59,SE,142,2.9,3.4,89,0.00,,,0.04,VWS V14.00,2013-01-28 13:26:00,
2013-01-28 08:30:00,34.7,31.8,29.59,SW,232,2.9,4.3,89,0.00,,,0.04,VWS V14.00,2013-01-28 13:30:00,
2013-01-28 08:31:00,35.1,31.9,29.59,East,98,0.0,2.2,88,0.00,,,0.04,VWS V14.00,2013-01-28 13:31:00,
2013-01-28 08:35:00,34.9,31.7,29.59,East,98,2.2,3.4,88,0.00,,,0.04,VWS V14.00,2013-01-28 13:35:00,
2013-01-28 08:36:00,35.1,31.9,29.59,WSW,255,2.7,3.6,88,0.00,,,0.04,VWS V14.00,2013-01-28 13:36:00,
2013-01-28 08:40:00,35.1,31.9,29.59,South,188,0.0,2.5,88,0.00,,,0.04,VWS V14.00,2013-01-28 13:40:00,
2013-01-28 08:41:00,35.2,31.8,29.59,WSW,255,0.0,2.2,87,0.00,,,0.04,VWS V14.00,2013-01-28 13:41:00,
2013-01-28 08:45:00,35.1,31.6,29.59,West,278,2.0,3.6,87,0.00,,,0.04,VWS V14.00,2013-01-28 13:45:00,
2013-01-28 08:46:00,35.6,32.1,29.59,South,188,0.0,0.0,87,0.00,,,0.04,VWS V14.00,2013-01-28 13:46:00,
2013-01-28 08:50:00,35.4,31.9,29.59,SW,232,0.0,2.2,87,0.00,,,0.04,VWS V14.00,2013-01-28 13:50:00,
2013-01-28 08:51:00,35.8,32.0,29.59,SSE,165,1.1,2.0,86,0.00,,,0.04,VWS V14.00,2013-01-28 13:51:00,
2013-01-28 08:55:00,35.8,32.0,29.59,WNW,300,2.0,3.6,86,0.00,,,0.04,VWS V14.00,2013-01-28 13:55:00,
2013-01-28 08:56:00,36.5,32.7,29.59,SSW,210,0.0,2.5,86,0.00,,,0.04,VWS V14.00,2013-01-28 13:56:00,
2013-01-28 09:00:00,36.3,32.5,29.59,SSE,165,2.5,3.1,86,0.00,,,0.04,VWS V14.00,2013-01-28 14:00:00,
2013-01-28 09:01:00,36.9,32.5,29.59,SW,232,1.6,3.8,84,0.00,,,0.04,VWS V14.00,2013-01-28 14:01:00,
2013-01-28 09:05:00,36.9,32.8,29.59,SSW,210,2.2,3.4,85,0.00,,,0.04,VWS V14.00,2013-01-28 14:05:00,
2013-01-28 09:06:00,36.9,31.9,29.59,SSE,165,0.0,3.6,82,0.00,,,0.04,VWS V14.00,2013-01-28 14:06:00,
2013-01-28 09:10:00,36.9,32.2,29.59,South,188,1.6,3.8,83,0.00,,,0.04,VWS V14.00,2013-01-28 14:10:00,
2013-01-28 09:11:00,36.9,31.9,29.59,SW,232,1.1,2.2,82,0.00,,,0.04,VWS V14.00,2013-01-28 14:11:00,
2013-01-28 09:15:00,36.9,31.9,29.59,SW,232,1.3,3.6,82,0.00,,,0.04,VWS V14.00,2013-01-28 14:15:00,
2013-01-28 09:16:00,36.9,31.6,29.59,South,188,2.0,2.9,81,0.00,,,0.04,VWS V14.00,2013-01-28 14:16:00,
2013-01-28 09:20:00,36.9,31.9,29.59,SW,232,2.9,3.6,82,0.00,,,0.04,VWS V14.00,2013-01-28 14:20:00,
2013-01-28 09:22:00,37.0,31.5,29.59,SW,232,2.0,3.6,80,0.00,,,0.04,VWS V14.00,2013-01-28 14:22:00,
2013-01-28 09:25:00,36.9,31.6,29.59,SE,142,3.6,3.6,81,0.00,,,0.04,VWS V14.00,2013-01-28 14:25:00,
2013-01-28 09:27:00,37.6,32.3,29.56,SE,142,2.5,2.5,81,0.00,,,0.04,VWS V14.00,2013-01-28 14:27:00,
2013-01-28 09:30:00,37.2,31.9,29.56,South,188,1.3,3.6,81,0.00,,,0.04,VWS V14.00,2013-01-28 14:30:00,
2013-01-28 09:32:00,38.1,32.5,29.56,SSE,165,2.0,2.5,80,0.00,,,0.04,VWS V14.00,2013-01-28 14:32:00,
2013-01-28 09:35:00,37.9,32.6,29.56,SSE,165,1.3,2.5,81,0.00,,,0.04,VWS V14.00,2013-01-28 14:35:00,
2013-01-28 09:37:00,38.7,32.7,29.56,SW,232,2.5,3.4,79,0.00,,,0.04,VWS V14.00,2013-01-28 14:37:00,
2013-01-28 09:40:00,38.3,32.4,29.56,SE,142,2.0,3.4,79,0.00,,,0.04,VWS V14.00,2013-01-28 14:40:00,
2013-01-28 09:42:00,38.8,31.9,29.56,SSW,210,2.7,4.9,76,0.00,,,0.04,VWS V14.00,2013-01-28 14:42:00,
2013-01-28 09:45:00,38.8,32.6,29.56,SSW,210,3.4,4.0,78,0.00,,,0.04,VWS V14.00,2013-01-28 14:45:00,
2013-01-28 09:47:00,38.8,31.9,29.56,South,188,1.1,3.6,76,0.00,,,0.04,VWS V14.00,2013-01-28 14:47:00,
2013-01-28 09:50:00,38.7,31.4,29.56,SW,232,2.2,6.0,75,0.00,,,0.04,VWS V14.00,2013-01-28 14:50:00,
2013-01-28 09:52:00,39.7,33.1,29.56,WSW,255,1.6,2.2,77,0.00,,,0.04,VWS V14.00,2013-01-28 14:52:00,
2013-01-28 09:55:00,39.2,32.3,29.56,SSE,165,0.0,3.6,76,0.00,,,0.04,VWS V14.00,2013-01-28 14:55:00,
2013-01-28 09:57:00,39.9,33.0,29.56,SW,232,2.5,2.9,76,0.00,,,0.04,VWS V14.00,2013-01-28 14:57:00,
2013-01-28 10:00:00,39.7,32.8,29.56,WSW,255,0.0,2.7,76,0.00,,,0.04,VWS V14.00,2013-01-28 15:00:00,
2013-01-28 10:02:00,40.3,32.7,29.56,SSE,165,2.5,3.6,74,0.00,,,0.04,VWS V14.00,2013-01-28 15:02:00,
2013-01-28 10:05:00,39.9,32.3,29.56,SE,142,2.9,3.1,74,0.00,,,0.04,VWS V14.00,2013-01-28 15:05:00,
2013-01-28 10:07:00,41.4,33.7,29.56,SSE,165,0.0,2.7,74,0.00,,,0.04,VWS V14.00,2013-01-28 15:07:00,
2013-01-28 10:10:00,41.0,33.4,29.56,South,188,0.0,3.6,74,0.00,,,0.04,VWS V14.00,2013-01-28 15:10:00,
2013-01-28 10:12:00,41.0,32.7,29.56,SE,142,1.3,3.4,72,0.00,,,0.04,VWS V14.00,2013-01-28 15:12:00,
2013-01-28 10:15:00,41.2,33.5,29.56,SW,232,0.0,2.7,74,0.00,,,0.04,VWS V14.00,2013-01-28 15:15:00,
2013-01-28 10:17:00,40.5,32.2,29.56,SSE,165,2.2,3.1,72,0.00,,,0.04,VWS V14.00,2013-01-28 15:17:00,
2013-01-28 10:20:00,40.6,32.3,29.56,WSW,255,3.1,4.0,72,0.00,,,0.04,VWS V14.00,2013-01-28 15:20:00,
2013-01-28 10:23:00,40.3,32.3,29.56,SE,142,0.0,2.5,73,0.00,,,0.04,VWS V14.00,2013-01-28 15:23:00,
2013-01-28 10:25:00,40.3,32.3,29.56,SE,142,1.6,3.1,73,0.00,,,0.04,VWS V14.00,2013-01-28 15:25:00,
2013-01-28 10:28:00,41.2,32.8,29.56,SSE,165,0.0,2.9,72,0.00,,,0.04,VWS V14.00,2013-01-28 15:28:00,
2013-01-28 10:30:00,40.5,32.2,29.56,SSW,210,1.6,3.1,72,0.00,,,0.04,VWS V14.00,2013-01-28 15:30:00,
2013-01-28 10:33:00,41.2,32.5,29.56,ESE,120,1.1,3.4,71,0.00,,,0.04,VWS V14.00,2013-01-28 15:33:00,
2013-01-28 10:35:00,41.4,33.0,29.56,SE,142,1.3,2.9,72,0.00,,,0.04,VWS V14.00,2013-01-28 15:35:00,
2013-01-28 10:38:00,42.4,33.7,29.56,SE,142,4.0,4.0,71,0.00,,,0.04,VWS V14.00,2013-01-28 15:38:00,
2013-01-28 10:40:00,41.2,32.2,29.56,SSE,165,2.0,3.4,70,0.00,,,0.04,VWS V14.00,2013-01-28 15:40:00,
2013-01-28 10:43:00,43.0,33.5,29.53,SE,142,1.1,3.4,69,0.00,,,0.04,VWS V14.00,2013-01-28 15:43:00,
2013-01-28 10:45:00,42.6,33.9,29.53,SSW,210,2.2,4.0,71,0.00,,,0.04,VWS V14.00,2013-01-28 15:45:00,
2013-01-28 10:48:00,44.1,33.8,29.53,SSE,165,2.9,3.6,67,0.00,,,0.04,VWS V14.00,2013-01-28 15:48:00,
2013-01-28 10:50:00,43.2,33.3,29.53,WSW,255,2.0,3.4,68,0.00,,,0.04,VWS V14.00,2013-01-28 15:50:00,
2013-01-28 10:53:00,45.1,33.3,29.53,SSE,165,2.5,3.6,63,0.00,,,0.04,VWS V14.00,2013-01-28 15:53:00,
2013-01-28 10:55:00,44.1,33.8,29.53,SSE,165,2.2,3.6,67,0.00,,,0.04,VWS V14.00,2013-01-28 15:55:00,
2013-01-28 10:58:00,45.3,33.1,29.53,West,278,1.1,4.9,62,0.00,,,0.04,VWS V14.00,2013-01-28 15:58:00,
2013-01-28 11:00:00,45.0,32.3,29.53,South,188,4.9,4.9,61,0.00,,,0.04,VWS V14.00,2013-01-28 16:00:00,
2013-01-28 11:03:00,45.5,32.8,29.53,WNW,300,1.6,5.4,61,0.00,,,0.04,VWS V14.00,2013-01-28 16:03:00,
2013-01-28 11:05:00,45.5,33.7,29.53,West,278,3.4,4.9,63,0.00,,,0.04,VWS V14.00,2013-01-28 16:05:00,
2013-01-28 11:09:00,46.2,33.9,29.53,WSW,255,1.6,3.4,62,0.00,,,0.04,VWS V14.00,2013-01-28 16:09:00,
2013-01-28 11:10:00,45.7,33.0,29.53,WSW,255,1.6,5.4,61,0.00,,,0.04,VWS V14.00,2013-01-28 16:10:00,
2013-01-28 11:14:00,46.9,33.4,29.53,SE,142,0.9,4.0,59,0.00,,,0.04,VWS V14.00,2013-01-28 16:14:00,
2013-01-28 11:15:00,46.2,33.9,29.53,South,188,1.3,3.4,62,0.00,,,0.04,VWS V14.00,2013-01-28 16:15:00,
2013-01-28 11:19:00,47.3,33.3,29.53,SE,142,2.7,4.9,58,0.00,,,0.04,VWS V14.00,2013-01-28 16:19:00,
2013-01-28 11:20:00,46.9,33.4,29.53,SE,142,0.9,4.0,59,0.00,,,0.04,VWS V14.00,2013-01-28 16:20:00,
2013-01-28 11:24:00,47.3,33.3,29.56,SSE,165,1.1,4.3,58,0.00,,,0.04,VWS V14.00,2013-01-28 16:24:00,
2013-01-28 11:25:00,47.1,32.7,29.53,SE,142,3.4,4.9,57,0.00,,,0.04,VWS V14.00,2013-01-28 16:25:00,
2013-01-28 11:29:00,47.8,32.5,29.56,SW,232,4.9,5.6,55,0.00,,,0.04,VWS V14.00,2013-01-28 16:29:00,
2013-01-28 11:30:00,47.5,33.9,29.56,West,278,2.7,4.3,59,0.00,,,0.04,VWS V14.00,2013-01-28 16:30:00,
2013-01-28 11:34:00,47.7,31.9,29.56,SSE,165,3.1,6.3,54,0.00,,,0.04,VWS V14.00,2013-01-28 16:34:00,
2013-01-28 11:35:00,47.8,32.5,29.56,West,278,3.8,5.6,55,0.00,,,0.04,VWS V14.00,2013-01-28 16:35:00,
2013-01-28 11:39:00,47.7,31.9,29.56,SW,232,3.1,5.8,54,0.00,,,0.04,VWS V14.00,2013-01-28 16:39:00,
2013-01-28 11:40:00,47.7,31.9,29.56,SSE,165,3.1,6.3,54,0.00,,,0.04,VWS V14.00,2013-01-28 16:40:00,
2013-01-28 11:44:00,47.7,32.3,29.56,South,188,1.1,6.5,55,0.00,,,0.04,VWS V14.00,2013-01-28 16:44:00,
2013-01-28 11:45:00,47.7,31.9,29.56,SW,232,5.6,5.8,54,0.00,,,0.04,VWS V14.00,2013-01-28 16:45:00,
2013-01-28 11:49:00,47.3,31.0,29.56,WSW,255,4.3,5.6,53,0.00,,,0.04,VWS V14.00,2013-01-28 16:49:00,
2013-01-28 11:50:00,47.7,32.3,29.56,South,188,1.1,6.5,55,0.00,,,0.04,VWS V14.00,2013-01-28 16:50:00,
2013-01-28 11:54:00,47.7,32.3,29.53,SSW,210,2.9,4.3,55,0.00,,,0.04,VWS V14.00,2013-01-28 16:54:00,
2013-01-28 11:55:00,47.3,31.0,29.56,WSW,255,4.3,5.6,53,0.00,,,0.04,VWS V14.00,2013-01-28 16:55:00,
2013-01-28 11:59:00,47.5,31.7,29.53,SW,232,3.4,4.7,54,0.00,,,0.04,VWS V14.00,2013-01-28 16:59:00,
2013-01-28 12:00:00,47.7,32.3,29.53,SSW,210,2.9,4.3,55,0.00,,,0.04,VWS V14.00,2013-01-28 17:00:00,
2013-01-28 12:05:00,47.5,31.7,29.53,SW,232,3.4,4.7,54,0.00,,,0.04,VWS V14.00,2013-01-28 17:05:00,
2013-01-28 12:06:00,47.7,32.3,29.53,SSE,165,1.1,2.9,55,0.00,,,0.04,VWS V14.00,2013-01-28 17:06:00,
2013-01-28 12:07:00,47.7,31.9,29.53,South,188,0.0,3.8,54,0.00,,,0.04,VWS V14.00,2013-01-28 17:07:00,
2013-01-28 12:08:00,47.7,32.3,29.53,SE,142,0.0,0.0,55,0.00,,,0.04,VWS V14.00,2013-01-28 17:08:00,
2013-01-28 12:09:00,47.7,32.3,29.53,West,278,1.3,1.3,55,0.00,,,0.04,VWS V14.00,2013-01-28 17:09:00,
2013-01-28 12:10:00,47.8,32.9,29.53,SE,142,2.9,2.9,56,0.00,,,0.04,VWS V14.00,2013-01-28 17:10:00,
2013-01-28 12:11:00,47.5,31.7,29.50,ESE,120,2.5,4.0,54,0.00,,,0.04,VWS V14.00,2013-01-28 17:11:00,
2013-01-28 12:15:00,47.7,31.9,29.50,SSE,165,3.1,3.8,54,0.00,,,0.04,VWS V14.00,2013-01-28 17:15:00,
2013-01-28 12:16:00,47.7,31.9,29.50,South,188,1.6,3.4,54,0.00,,,0.04,VWS V14.00,2013-01-28 17:16:00,
2013-01-28 12:20:00,47.5,31.2,29.50,South,188,2.7,6.3,53,0.00,,,0.04,VWS V14.00,2013-01-28 17:20:00,
2013-01-28 12:21:00,47.7,30.9,29.50,SW,232,5.8,5.8,52,0.00,,,0.04,VWS V14.00,2013-01-28 17:21:00,
2013-01-28 12:25:00,48.0,31.7,29.50,SSE,165,2.9,4.3,53,0.00,,,0.04,VWS V14.00,2013-01-28 17:25:00,
2013-01-28 12:26:00,47.3,31.0,29.50,South,188,3.1,4.3,53,0.00,,,0.04,VWS V14.00,2013-01-28 17:26:00,
2013-01-28 12:30:00,47.5,31.2,29.50,SE,142,2.5,5.8,53,0.00,,,0.04,VWS V14.00,2013-01-28 17:30:00,
2013-01-28 12:31:00,47.1,31.4,29.50,SW,232,1.6,6.3,54,0.00,,,0.04,VWS V14.00,2013-01-28 17:31:00,
2013-01-28 12:35:00,47.3,31.5,29.50,SW,232,6.3,6.3,54,0.00,,,0.04,VWS V14.00,2013-01-28 17:35:00,
2013-01-28 12:37:00,47.1,31.4,29.50,SE,142,3.4,6.5,54,0.00,,,0.04,VWS V14.00,2013-01-28 17:37:00,
2013-01-28 12:40:00,47.1,30.9,29.50,SE,142,6.5,6.5,53,0.00,,,0.04,VWS V14.00,2013-01-28 17:40:00,
2013-01-28 12:42:00,46.8,31.0,29.50,South,188,3.4,6.5,54,0.00,,,0.04,VWS V14.00,2013-01-28 17:42:00,
2013-01-28 12:45:00,46.9,30.7,29.50,SE,142,5.4,6.5,53,0.00,,,0.04,VWS V14.00,2013-01-28 17:45:00,
2013-01-28 12:47:00,46.9,31.2,29.50,SSW,210,1.3,4.3,54,0.00,,,0.04,VWS V14.00,2013-01-28 17:47:00,
2013-01-28 12:50:00,46.9,31.2,29.50,SE,142,4.0,6.5,54,0.00,,,0.04,VWS V14.00,2013-01-28 17:50:00,
2013-01-28 12:52:00,47.3,32.0,29.50,SE,142,2.9,3.6,55,0.00,,,0.04,VWS V14.00,2013-01-28 17:52:00,
2013-01-28 12:55:00,47.1,31.8,29.50,SE,142,2.5,4.3,55,0.00,,,0.04,VWS V14.00,2013-01-28 17:55:00,
2013-01-28 12:57:00,47.7,32.8,29.47,South,188,1.6,3.4,56,0.00,,,0.04,VWS V14.00,2013-01-28 17:57:00,
2013-01-28 13:00:00,47.3,32.0,29.47,South,188,2.5,5.4,55,0.00,,,0.04,VWS V14.00,2013-01-28 18:00:00,
2013-01-28 13:02:00,47.8,32.5,29.47,South,188,3.4,4.9,55,0.00,,,0.04,VWS V14.00,2013-01-28 18:02:00,
2013-01-28 13:05:00,47.7,32.3,29.47,SW,232,4.3,4.7,55,0.00,,,0.04,VWS V14.00,2013-01-28 18:05:00,
2013-01-28 13:07:00,48.2,32.8,29.47,South,188,2.5,3.6,55,0.00,,,0.04,VWS V14.00,2013-01-28 18:07:00,
2013-01-28 13:10:00,48.0,32.6,29.47,West,278,2.9,4.9,55,0.00,,,0.04,VWS V14.00,2013-01-28 18:10:00,
2013-01-28 13:12:00,48.4,32.5,29.47,South,188,2.5,5.4,54,0.00,,,0.04,VWS V14.00,2013-01-28 18:12:00,
2013-01-28 13:15:00,48.2,32.3,29.47,SW,232,2.9,3.8,54,0.00,,,0.04,VWS V14.00,2013-01-28 18:15:00,
2013-01-28 13:17:00,48.4,33.0,29.47,SW,232,1.6,4.0,55,0.00,,,0.04,VWS V14.00,2013-01-28 18:17:00,
2013-01-28 13:20:00,48.4,32.0,29.47,SW,232,2.2,6.3,53,0.00,,,0.04,VWS V14.00,2013-01-28 18:20:00,
2013-01-28 13:22:00,48.4,32.5,29.47,SSW,210,0.0,4.7,54,0.00,,,0.04,VWS V14.00,2013-01-28 18:22:00,
2013-01-28 13:25:00,48.4,33.0,29.47,WSW,255,4.0,5.6,55,0.00,,,0.04,VWS V14.00,2013-01-28 18:25:00,
2013-01-28 13:27:00,48.4,33.0,29.47,South,188,5.4,6.0,55,0.00,,,0.04,VWS V14.00,2013-01-28 18:27:00,
2013-01-28 13:30:00,48.4,32.5,29.47,South,188,3.6,4.7,54,0.00,,,0.04,VWS V14.00,2013-01-28 18:30:00,
2013-01-28 13:32:00,48.4,33.0,29.47,South,188,1.3,4.0,55,0.00,,,0.04,VWS V14.00,2013-01-28 18:32:00,
2013-01-28 13:35:00,48.2,32.3,29.47,SW,232,4.0,6.0,54,0.00,,,0.04,VWS V14.00,2013-01-28 18:35:00,
2013-01-28 13:38:00,48.4,33.0,29.47,SSW,210,0.0,4.7,55,0.00,,,0.04,VWS V14.00,2013-01-28 18:38:00,
2013-01-28 13:40:00,48.4,33.0,29.47,South,188,3.4,4.0,55,0.00,,,0.04,VWS V14.00,2013-01-28 18:40:00,
2013-01-28 13:43:00,48.7,33.8,29.44,SW,232,1.3,4.7,56,0.00,,,0.04,VWS V14.00,2013-01-28 18:43:00,
2013-01-28 13:45:00,48.4,33.0,29.44,SSE,165,4.7,4.7,55,0.00,,,0.04,VWS V14.00,2013-01-28 18:45:00,
2013-01-28 13:48:00,48.7,33.3,29.44,SE,142,3.4,4.7,55,0.00,,,0.04,VWS V14.00,2013-01-28 18:48:00,
2013-01-28 13:50:00,48.7,33.8,29.44,SW,232,3.8,4.7,56,0.00,,,0.04,VWS V14.00,2013-01-28 18:50:00,
2013-01-28 13:53:00,48.9,33.5,29.44,SSE,165,2.7,4.3,55,0.00,,,0.04,VWS V14.00,2013-01-28 18:53:00,
2013-01-28 13:55:00,48.7,33.8,29.44,SSW,210,3.4,4.7,56,0.00,,,0.04,VWS V14.00,2013-01-28 18:55:00,
2013-01-28 13:58:00,49.3,34.3,29.41,SSE,165,1.6,3.1,56,0.00,,,0.04,VWS V14.00,2013-01-28 18:58:00,
2013-01-28 14:00:00,49.1,33.7,29.41,SSE,165,1.6,4.3,55,0.00,,,0.04,VWS V14.00,2013-01-28 19:00:00,
2013-01-28 14:03:00,49.1,34.5,29.41,SW,232,3.1,5.6,57,0.00,,,0.04,VWS V14.00,2013-01-28 19:03:00,
2013-01-28 14:05:00,49.3,34.3,29.41,SSE,165,1.3,6.5,56,0.00,,,0.04,VWS V14.00,2013-01-28 19:05:00,
2013-01-28 14:08:00,49.1,35.0,29.41,SSE,165,0.9,7.4,58,0.00,,,0.04,VWS V14.00,2013-01-28 19:08:00,
2013-01-28 14:10:00,49.1,34.5,29.41,SSE,165,2.9,5.6,57,0.00,,,0.04,VWS V14.00,2013-01-28 19:10:00,
2013-01-28 14:13:00,49.1,35.0,29.44,SSE,165,3.6,4.0,58,0.00,,,0.04,VWS V14.00,2013-01-28 19:13:00,
2013-01-28 14:15:00,49.1,35.0,29.44,South,188,3.8,7.4,58,0.00,,,0.04,VWS V14.00,2013-01-28 19:15:00,
2013-01-28 14:18:00,49.6,35.9,29.44,South,188,3.1,4.9,59,0.00,,,0.04,VWS V14.00,2013-01-28 19:18:00,
2013-01-28 14:20:00,49.1,35.0,29.44,SW,232,2.7,4.0,58,0.00,,,0.04,VWS V14.00,2013-01-28 19:20:00,
2013-01-28 14:23:00,49.8,35.7,29.44,SE,142,3.6,6.0,58,0.00,,,0.04,VWS V14.00,2013-01-28 19:23:00,
2013-01-28 14:25:00,49.6,35.9,29.44,South,188,3.1,4.9,59,0.00,,,0.04,VWS V14.00,2013-01-28 19:25:00,
2013-01-28 14:28:00,50.0,36.7,29.44,SE,142,2.0,5.4,60,0.00,,,0.04,VWS V14.00,2013-01-28 19:28:00,
2013-01-28 14:30:00,49.8,35.7,29.44,SW,232,2.9,6.0,58,0.00,,,0.04,VWS V14.00,2013-01-28 19:30:00,
2013-01-28 14:33:00,50.2,36.4,29.44,South,188,3.6,4.7,59,0.00,,,0.04,VWS V14.00,2013-01-28 19:33:00,
2013-01-28 14:35:00,50.2,36.8,29.44,South,188,0.0,5.4,60,0.00,,,0.04,VWS V14.00,2013-01-28 19:35:00,
2013-01-28 14:39:00,50.2,37.3,29.44,WSW,255,2.5,5.4,61,0.00,,,0.04,VWS V14.00,2013-01-28 19:39:00,
2013-01-28 14:40:00,50.2,36.4,29.44,SE,142,2.0,4.7,59,0.00,,,0.04,VWS V14.00,2013-01-28 19:40:00,
2013-01-28 14:44:00,49.6,36.8,29.44,South,188,4.9,6.5,61,0.00,,,0.04,VWS V14.00,2013-01-28 19:44:00,
2013-01-28 14:45:00,50.2,37.3,29.44,West,278,2.5,5.4,61,0.00,,,0.04,VWS V14.00,2013-01-28 19:45:00,
2013-01-28 14:49:00,49.5,37.0,29.44,SSW,210,3.8,6.7,62,0.00,,,0.04,VWS V14.00,2013-01-28 19:49:00,
2013-01-28 14:50:00,49.6,36.8,29.44,South,188,4.9,6.5,61,0.00,,,0.04,VWS V14.00,2013-01-28 19:50:00,
2013-01-28 14:54:00,49.1,37.1,29.44,SSW,210,3.8,6.3,63,0.00,,,0.04,VWS V14.00,2013-01-28 19:54:00,
2013-01-28 14:55:00,49.3,36.8,29.44,ESE,120,3.4,6.7,62,0.00,,,0.04,VWS V14.00,2013-01-28 19:55:00,
2013-01-28 14:59:00,49.3,37.6,29.44,SSE,165,2.2,5.4,64,0.00,,,0.04,VWS V14.00,2013-01-28 19:59:00,
2013-01-28 15:00:00,49.1,37.1,29.44,SE,142,3.1,6.3,63,0.00,,,0.04,VWS V14.00,2013-01-28 20:00:00,
2013-01-28 15:04:00,49.5,37.4,29.44,SW,232,4.9,4.9,63,0.00,,,0.04,VWS V14.00,2013-01-28 20:04:00,
2013-01-28 15:05:00,49.3,37.6,29.44,SSE,165,1.6,5.4,64,0.00,,,0.04,VWS V14.00,2013-01-28 20:05:00,
2013-01-28 15:09:00,49.5,37.8,29.41,SE,142,2.5,4.9,64,0.00,,,0.04,VWS V14.00,2013-01-28 20:09:00,
2013-01-28 15:10:00,49.5,37.4,29.44,SW,232,4.9,4.9,63,0.00,,,0.04,VWS V14.00,2013-01-28 20:10:00,
2013-01-28 15:14:00,49.3,37.6,29.41,West,278,3.1,6.0,64,0.00,,,0.04,VWS V14.00,2013-01-28 20:14:00,
2013-01-28 15:15:00,49.5,37.8,29.41,SE,142,2.5,4.9,64,0.00,,,0.04,VWS V14.00,2013-01-28 20:15:00,
2013-01-28 15:19:00,49.1,37.9,29.41,SE,142,2.2,4.7,65,0.00,,,0.04,VWS V14.00,2013-01-28 20:19:00,
2013-01-28 15:20:00,49.3,37.6,29.41,West,278,3.1,6.0,64,0.00,,,0.04,VWS V14.00,2013-01-28 20:20:00,
2013-01-28 15:24:00,48.9,38.1,29.44,ESE,120,2.9,5.4,66,0.00,,,0.04,VWS V14.00,2013-01-28 20:24:00,
2013-01-28 15:25:00,49.1,37.9,29.41,SE,142,2.2,4.7,65,0.00,,,0.04,VWS V14.00,2013-01-28 20:25:00,
2013-01-28 15:29:00,48.9,38.5,29.44,SSE,165,3.6,4.0,67,0.00,,,0.04,VWS V14.00,2013-01-28 20:29:00,
2013-01-28 15:30:00,48.9,38.1,29.44,ESE,120,2.9,5.4,66,0.00,,,0.04,VWS V14.00,2013-01-28 20:30:00,
2013-01-28 15:34:00,49.1,38.6,29.44,SSE,165,0.9,3.6,67,0.00,,,0.04,VWS V14.00,2013-01-28 20:34:00,
2013-01-28 15:35:00,48.9,38.5,29.44,SSE,165,3.6,4.0,67,0.00,,,0.04,VWS V14.00,2013-01-28 20:35:00,
2013-01-28 15:39:00,49.1,38.6,29.44,WNW,300,2.7,4.0,67,0.00,,,0.04,VWS V14.00,2013-01-28 20:39:00,
2013-01-28 15:40:00,49.1,38.6,29.44,SSE,165,0.9,3.6,67,0.00,,,0.04,VWS V14.00,2013-01-28 20:40:00,
2013-01-28 15:44:00,48.9,38.5,29.44,WSW,255,2.0,3.6,67,0.00,,,0.04,VWS V14.00,2013-01-28 20:44:00,
2013-01-28 15:45:00,49.1,38.6,29.44,WNW,300,2.7,4.0,67,0.00,,,0.04,VWS V14.00,2013-01-28 20:45:00,
2013-01-28 15:49:00,48.9,38.8,29.44,SSE,165,1.1,3.4,68,0.00,,,0.04,VWS V14.00,2013-01-28 20:49:00,
2013-01-28 15:50:00,48.9,38.5,29.44,WSW,255,2.0,3.6,67,0.00,,,0.04,VWS V14.00,2013-01-28 20:50:00,
2013-01-28 15:54:00,48.7,38.7,29.44,SW,232,0.9,4.0,68,0.00,,,0.04,VWS V14.00,2013-01-28 20:54:00,
2013-01-28 15:55:00,48.9,38.8,29.44,SSE,165,1.1,3.4,68,0.00,,,0.04,VWS V14.00,2013-01-28 20:55:00,
2013-01-28 15:59:00,48.7,38.7,29.44,SSE,165,2.0,3.8,68,0.00,,,0.04,VWS V14.00,2013-01-28 20:59:00,
2013-01-28 16:00:00,48.7,38.7,29.44,SW,232,0.9,4.0,68,0.00,,,0.04,VWS V14.00,2013-01-28 21:00:00,
2013-01-28 16:04:00,48.7,38.7,29.44,SE,142,2.5,2.5,68,0.00,,,0.04,VWS V14.00,2013-01-28 21:04:00,
2013-01-28 16:05:00,48.7,38.7,29.44,SSE,165,2.0,3.8,68,0.00,,,0.04,VWS V14.00,2013-01-28 21:05:00,
2013-01-28 16:09:00,48.7,38.7,29.41,North,8,1.1,1.1,68,0.00,,,0.04,VWS V14.00,2013-01-28 21:09:00,
2013-01-28 16:10:00,48.7,38.7,29.44,SE,142,1.1,3.4,68,0.00,,,0.04,VWS V14.00,2013-01-28 21:10:00,
2013-01-28 16:14:00,48.7,39.0,29.41,SE,142,3.6,3.6,69,0.00,,,0.04,VWS V14.00,2013-01-28 21:14:00,
2013-01-28 16:15:00,48.7,38.7,29.41,North,8,1.1,4.0,68,0.00,,,0.04,VWS V14.00,2013-01-28 21:15:00,
2013-01-28 16:19:00,48.7,39.0,29.41,South,188,4.0,4.0,69,0.00,,,0.04,VWS V14.00,2013-01-28 21:19:00,
2013-01-28 16:20:00,48.7,39.0,29.41,SE,142,3.4,3.6,69,0.00,,,0.04,VWS V14.00,2013-01-28 21:20:00,
2013-01-28 16:24:00,48.7,39.4,29.41,SW,232,1.1,1.1,70,0.00,,,0.04,VWS V14.00,2013-01-28 21:24:00,
2013-01-28 16:25:00,48.7,39.0,29.41,SE,142,3.8,4.9,69,0.00,,,0.04,VWS V14.00,2013-01-28 21:25:00,
2013-01-28 16:29:00,48.7,39.4,29.41,SE,142,2.7,2.7,70,0.00,,,0.04,VWS V14.00,2013-01-28 21:29:00,
2013-01-28 16:30:00,48.7,39.4,29.41,SW,232,1.1,4.0,70,0.00,,,0.04,VWS V14.00,2013-01-28 21:30:00,
2013-01-28 16:34:00,48.7,39.4,29.41,SE,142,3.1,3.1,70,0.00,,,0.04,VWS V14.00,2013-01-28 21:34:00,
2013-01-28 16:35:00,48.7,39.4,29.41,SE,142,2.7,2.7,70,0.00,,,0.04,VWS V14.00,2013-01-28 21:35:00,
2013-01-28 16:40:00,48.6,39.2,29.41,WSW,255,1.1,2.7,70,0.00,,,0.04,VWS V14.00,2013-01-28 21:40:00,
2013-01-28 16:45:00,48.6,39.6,29.41,South,188,3.1,3.1,71,0.00,,,0.04,VWS V14.00,2013-01-28 21:45:00,
2013-01-28 16:50:00,48.6,39.2,29.41,SE,142,3.1,3.1,70,0.00,,,0.04,VWS V14.00,2013-01-28 21:50:00,
2013-01-28 16:55:00,48.6,39.6,29.41,WSW,255,2.0,2.5,71,0.00,,,0.04,VWS V14.00,2013-01-28 21:55:00,
2013-01-28 17:00:00,48.6,39.6,29.41,South,188,2.5,3.6,71,0.00,,,0.04,VWS V14.00,2013-01-28 22:00:00,
2013-01-28 17:05:00,48.6,39.6,29.41,SE,142,2.5,3.4,71,0.00,,,0.04,VWS V14.00,2013-01-28 22:05:00,
2013-01-28 17:10:00,48.6,39.6,29.41,South,188,1.3,1.3,71,0.00,,,0.04,VWS V14.00,2013-01-28 22:10:00,
2013-01-28 17:15:00,48.4,39.4,29.41,South,188,1.1,1.3,71,0.00,,,0.04,VWS V14.00,2013-01-28 22:15:00,
2013-01-28 17:20:00,48.4,39.4,29.41,South,188,2.9,2.9,71,0.00,,,0.04,VWS V14.00,2013-01-28 22:20:00,
2013-01-28 17:25:00,48.2,39.2,29.41,SE,142,0.0,0.0,71,0.00,,,0.04,VWS V14.00,2013-01-28 22:25:00,
2013-01-28 17:30:00,48.2,39.2,29.41,SW,232,1.6,2.0,71,0.00,,,0.04,VWS V14.00,2013-01-28 22:30:00,
2013-01-28 17:35:00,48.0,39.4,29.41,SSW,210,0.0,1.3,72,0.00,,,0.04,VWS V14.00,2013-01-28 22:35:00,
2013-01-28 17:40:00,48.2,39.2,29.41,SE,142,0.0,2.0,71,0.00,,,0.04,VWS V14.00,2013-01-28 22:40:00,
2013-01-28 17:41:00,48.0,39.4,29.41,NW,322,0.9,1.3,72,0.00,,,0.04,VWS V14.00,2013-01-28 22:41:00,
2013-01-28 17:45:00,48.0,39.4,29.41,West,278,1.3,1.3,72,0.00,,,0.04,VWS V14.00,2013-01-28 22:45:00,
2013-01-28 17:46:00,48.0,39.4,29.41,South,188,0.0,0.0,72,0.00,,,0.04,VWS V14.00,2013-01-28 22:46:00,
2013-01-28 17:50:00,48.0,39.4,29.41,South,188,0.0,1.6,72,0.00,,,0.04,VWS V14.00,2013-01-28 22:50:00,
2013-01-28 17:51:00,47.8,39.3,29.41,South,188,0.0,0.0,72,0.00,,,0.04,VWS V14.00,2013-01-28 22:51:00,
2013-01-28 17:55:00,47.8,39.3,29.41,SW,232,0.0,0.0,72,0.00,,,0.04,VWS V14.00,2013-01-28 22:55:00,
2013-01-28 17:56:00,47.8,39.3,29.41,SSE,165,0.9,0.9,72,0.00,,,0.04,VWS V14.00,2013-01-28 22:56:00,
2013-01-28 18:00:00,47.8,39.3,29.41,SSE,165,0.9,0.9,72,0.00,,,0.04,VWS V14.00,2013-01-28 23:00:00,
2013-01-28 18:03:00,47.8,39.3,29.41,SE,142,0.0,0.0,72,0.00,,,0.04,VWS V14.00,2013-01-28 23:03:00,
2013-01-28 18:05:00,47.8,39.3,29.41,SE,142,0.0,1.1,72,0.00,,,0.04,VWS V14.00,2013-01-28 23:05:00,
2013-01-28 18:06:00,47.8,39.3,29.41,SE,142,0.0,0.0,72,0.00,,,0.04,VWS V14.00,2013-01-28 23:06:00,
2013-01-28 18:07:00,47.8,39.3,29.41,SE,142,0.0,0.0,72,0.00,,,0.04,VWS V14.00,2013-01-28 23:07:00,
2013-01-28 18:08:00,47.7,39.4,29.41,SE,142,0.0,0.0,73,0.00,,,0.04,VWS V14.00,2013-01-28 23:08:00,
2013-01-28 18:10:00,47.7,39.1,29.41,SE,142,0.0,0.0,72,0.00,,,0.04,VWS V14.00,2013-01-28 23:10:00,
2013-01-28 18:13:00,47.7,39.4,29.44,SSE,165,1.6,1.6,73,0.00,,,0.04,VWS V14.00,2013-01-28 23:13:00,
2013-01-28 18:15:00,47.7,39.4,29.44,SE,142,0.0,0.0,73,0.00,,,0.04,VWS V14.00,2013-01-28 23:15:00,
2013-01-28 18:18:00,47.7,39.8,29.44,ESE,120,0.0,2.0,74,0.00,,,0.04,VWS V14.00,2013-01-28 23:18:00,
2013-01-28 18:20:00,47.7,39.4,29.44,SE,142,2.0,2.0,73,0.00,,,0.04,VWS V14.00,2013-01-28 23:20:00,
2013-01-28 18:23:00,47.8,40.7,29.44,South,188,2.0,3.4,76,0.00,,,0.04,VWS V14.00,2013-01-28 23:23:00,
2013-01-28 18:25:00,47.7,39.8,29.44,SSE,165,2.0,2.0,74,0.00,,,0.04,VWS V14.00,2013-01-28 23:25:00,
2013-01-28 18:29:00,47.8,40.3,29.44,South,188,0.0,1.6,75,0.00,,,0.04,VWS V14.00,2013-01-28 23:29:00,
2013-01-28 18:30:00,47.8,40.3,29.44,South,188,1.6,3.4,75,0.00,,,0.04,VWS V14.00,2013-01-28 23:30:00,
2013-01-28 18:34:00,47.8,40.3,29.44,SSW,210,0.9,1.6,75,0.00,,,0.04,VWS V14.00,2013-01-28 23:34:00,
2013-01-28 18:35:00,47.8,40.3,29.44,WSW,255,0.0,1.6,75,0.00,,,0.04,VWS V14.00,2013-01-28 23:35:00,
2013-01-28 18:39:00,48.2,41.3,29.44,SW,232,1.3,3.8,77,0.00,,,0.04,VWS V14.00,2013-01-28 23:39:00,
2013-01-28 18:40:00,47.8,40.3,29.44,ESE,120,0.9,1.6,75,0.00,,,0.04,VWS V14.00,2013-01-28 23:40:00,
2013-01-28 18:44:00,48.2,41.0,29.44,SSW,210,0.9,3.8,76,0.00,,,0.04,VWS V14.00,2013-01-28 23:44:00,
2013-01-28 18:45:00,48.2,41.3,29.44,SW,232,1.3,3.8,77,0.00,,,0.04,VWS V14.00,2013-01-28 23:45:00,
2013-01-28 18:49:00,48.4,41.5,29.44,SSE,165,1.6,3.8,77,0.00,,,0.04,VWS V14.00,2013-01-28 23:49:00,
2013-01-28 18:50:00,48.2,41.0,29.44,SSW,210,1.3,3.8,76,0.00,,,0.04,VWS V14.00,2013-01-28 23:50:00,
2013-01-28 18:54:00,48.4,41.2,29.41,SSE,165,2.0,2.2,76,0.00,,,0.04,VWS V14.00,2013-01-28 23:54:00,
2013-01-28 18:55:00,48.4,41.5,29.44,SSE,165,1.6,3.8,77,0.00,,,0.04,VWS V14.00,2013-01-28 23:55:00,
2013-01-28 18:59:00,48.4,41.5,29.41,SSE,165,2.5,4.0,77,0.00,,,0.04,VWS V14.00,2013-01-28 23:59:00,
2013-01-28 19:00:00,48.4,41.2,29.41,SSE,165,1.3,2.2,76,0.00,,,0.04,VWS V14.00,2013-01-29 00:00:00,
2013-01-28 19:04:00,48.4,41.2,29.41,SSE,165,1.1,2.5,76,0.00,,,0.04,VWS V14.00,2013-01-29 00:04:00,
2013-01-28 19:05:00,48.4,41.5,29.41,SSE,165,2.5,4.0,77,0.00,,,0.04,VWS V14.00,2013-01-29 00:05:00,
2013-01-28 19:09:00,48.4,41.2,29.44,SW,232,1.1,2.5,76,0.00,,,0.04,VWS V14.00,2013-01-29 00:09:00,
2013-01-28 19:10:00,48.4,41.2,29.41,SSE,165,1.1,2.5,76,0.00,,,0.04,VWS V14.00,2013-01-29 00:10:00,
2013-01-28 19:14:00,48.4,41.2,29.44,SE,142,3.1,3.1,76,0.00,,,0.04,VWS V14.00,2013-01-29 00:14:00,
2013-01-28 19:15:00,48.4,41.2,29.44,SW,232,1.1,2.5,76,0.00,,,0.04,VWS V14.00,2013-01-29 00:15:00,
2013-01-28 19:19:00,48.4,41.5,29.44,SW,232,1.6,4.0,77,0.00,,,0.04,VWS V14.00,2013-01-29 00:19:00,
2013-01-28 19:20:00,48.4,41.2,29.44,SE,142,1.3,2.9,76,0.00,,,0.04,VWS V14.00,2013-01-29 00:20:00,
2013-01-28 19:24:00,48.4,41.2,29.44,SSE,165,2.0,2.0,76,0.00,,,0.04,VWS V14.00,2013-01-29 00:24:00,
2013-01-28 19:25:00,48.4,41.5,29.44,SW,232,1.6,4.0,77,0.00,,,0.04,VWS V14.00,2013-01-29 00:25:00,
2013-01-28 19:29:00,48.4,41.5,29.44,SE,142,1.6,1.6,77,0.00,,,0.04,VWS V14.00,2013-01-29 00:29:00,
2013-01-28 19:30:00,48.4,41.2,29.44,SSE,165,2.0,2.0,76,0.00,,,0.04,VWS V14.00,2013-01-29 00:30:00,
2013-01-28 19:34:00,48.4,41.5,29.44,SSW,210,0.0,1.6,77,0.00,,,0.04,VWS V14.00,2013-01-29 00:34:00,
2013-01-28 19:35:00,48.4,41.5,29.44,SE,142,1.6,3.1,77,0.00,,,0.04,VWS V14.00,2013-01-29 00:35:00,
2013-01-28 19:39:00,48.4,41.5,29.44,SE,142,1.6,1.6,77,0.00,,,0.04,VWS V14.00,2013-01-29 00:39:00,
2013-01-28 19:40:00,48.4,41.5,29.44,SSW,210,1.6,2.7,77,0.00,,,0.04,VWS V14.00,2013-01-29 00:40:00,
2013-01-28 19:44:00,48.4,42.2,29.44,SE,142,2.7,3.1,79,0.00,,,0.04,VWS V14.00,2013-01-29 00:44:00,
2013-01-28 19:45:00,48.4,41.5,29.44,SSE,165,0.0,1.6,77,0.00,,,0.04,VWS V14.00,2013-01-29 00:45:00,
2013-01-28 19:50:00,48.4,42.2,29.44,SE,142,2.2,2.7,79,0.00,,,0.04,VWS V14.00,2013-01-29 00:50:00,
2013-01-28 19:55:00,48.4,42.2,29.41,South,188,0.0,0.0,79,0.00,,,0.04,VWS V14.00,2013-01-29 00:55:00,
2013-01-28 20:00:00,48.4,42.5,29.41,SSE,165,1.3,2.7,80,0.00,,,0.04,VWS V14.00,2013-01-29 01:00:00,
2013-01-28 20:05:00,48.2,42.0,29.41,SSE,165,1.1,1.6,79,0.00,,,0.04,VWS V14.00,2013-01-29 01:05:00,
2013-01-28 20:10:00,48.2,42.3,29.41,SE,142,2.2,3.8,80,0.00,,,0.04,VWS V14.00,2013-01-29 01:10:00,
2013-01-28 20:15:00,48.0,42.2,29.41,SSW,210,2.0,2.5,80,0.00,,,0.04,VWS V14.00,2013-01-29 01:15:00,
2013-01-28 20:20:00,47.8,42.3,29.41,SSE,165,0.0,2.0,81,0.00,,,0.04,VWS V14.00,2013-01-29 01:20:00,
2013-01-28 20:25:00,48.0,42.8,29.38,SW,232,2.9,2.9,82,0.00,,,0.04,VWS V14.00,2013-01-29 01:25:00,
2013-01-28 20:30:00,48.0,42.8,29.38,SE,142,2.5,3.4,82,0.00,,,0.04,VWS V14.00,2013-01-29 01:30:00,
2013-01-28 20:35:00,48.0,42.8,29.38,ESE,120,1.3,2.7,82,0.00,,,0.04,VWS V14.00,2013-01-29 01:35:00,
2013-01-28 20:40:00,48.0,42.8,29.41,SE,142,0.0,2.7,82,0.00,,,0.04,VWS V14.00,2013-01-29 01:40:00,
2013-01-28 20:45:00,48.0,42.8,29.41,SSE,165,1.1,2.0,82,0.00,,,0.04,VWS V14.00,2013-01-29 01:45:00,
2013-01-28 20:50:00,48.0,42.8,29.41,SE,142,2.0,3.8,82,0.00,,,0.04,VWS V14.00,2013-01-29 01:50:00,
2013-01-28 20:51:00,48.0,43.1,29.41,South,188,2.7,2.7,83,0.00,,,0.04,VWS V14.00,2013-01-29 01:51:00,
2013-01-28 20:55:00,48.0,43.1,29.41,South,188,2.7,3.8,83,0.00,,,0.04,VWS V14.00,2013-01-29 01:55:00,
2013-01-28 20:56:00,47.8,42.9,29.41,SW,232,2.5,2.5,83,0.00,,,0.04,VWS V14.00,2013-01-29 01:56:00,
2013-01-28 21:00:00,47.8,42.6,29.41,WSW,255,0.0,3.1,82,0.00,,,0.04,VWS V14.00,2013-01-29 02:00:00,
2013-01-28 21:01:00,47.8,42.9,29.41,SSE,165,2.5,2.5,83,0.00,,,0.04,VWS V14.00,2013-01-29 02:01:00,
2013-01-28 21:05:00,47.8,43.2,29.41,SW,232,1.3,4.0,84,0.00,,,0.04,VWS V14.00,2013-01-29 02:05:00,
2013-01-28 21:06:00,47.8,43.2,29.41,SSE,165,2.5,2.9,84,0.00,,,0.04,VWS V14.00,2013-01-29 02:06:00,
2013-01-28 21:10:00,47.8,43.2,29.41,SSE,165,1.3,3.6,84,0.00,,,0.04,VWS V14.00,2013-01-29 02:10:00,
2013-01-28 21:11:00,47.8,43.6,29.38,South,188,2.0,3.6,85,0.00,,,0.04,VWS V14.00,2013-01-29 02:11:00,
2013-01-28 21:15:00,47.8,43.2,29.38,SE,142,2.0,4.3,84,0.00,,,0.04,VWS V14.00,2013-01-29 02:15:00,
2013-01-28 21:16:00,47.8,43.6,29.38,WSW,255,1.3,3.4,85,0.00,,,0.04,VWS V14.00,2013-01-29 02:16:00,
2013-01-28 21:20:00,47.8,43.6,29.38,SSE,165,2.0,3.6,85,0.00,,,0.04,VWS V14.00,2013-01-29 02:20:00,
2013-01-28 21:21:00,47.7,43.4,29.38,SSE,165,1.3,3.1,85,0.00,,,0.04,VWS V14.00,2013-01-29 02:21:00,
2013-01-28 21:25:00,47.8,43.6,29.38,South,188,3.1,3.4,85,0.00,,,0.04,VWS V14.00,2013-01-29 02:25:00,
2013-01-28 21:26:00,47.7,43.7,29.38,SSE,165,1.3,3.6,86,0.00,,,0.04,VWS V14.00,2013-01-29 02:26:00,
2013-01-28 21:30:00,47.7,43.7,29.38,SE,142,2.5,3.1,86,0.00,,,0.04,VWS V14.00,2013-01-29 02:30:00,
2013-01-28 21:31:00,47.5,43.5,29.38,SE,142,2.9,3.6,86,0.00,,,0.04,VWS V14.00,2013-01-29 02:31:00,
2013-01-28 21:35:00,47.5,43.5,29.38,SW,232,2.7,3.6,86,0.00,,,0.04,VWS V14.00,2013-01-29 02:35:00,
2013-01-28 21:36:00,47.3,43.3,29.38,SE,142,2.0,2.5,86,0.00,,,0.04,VWS V14.00,2013-01-29 02:36:00,
2013-01-28 21:40:00,47.5,43.5,29.38,SE,142,0.0,3.6,86,0.00,,,0.04,VWS V14.00,2013-01-29 02:40:00,
2013-01-28 21:41:00,47.3,43.3,29.38,SE,142,1.6,2.9,86,0.00,,,0.04,VWS V14.00,2013-01-29 02:41:00,
2013-01-28 21:45:00,47.3,43.3,29.38,SSE,165,1.1,2.7,86,0.00,,,0.04,VWS V14.00,2013-01-29 02:45:00,
2013-01-28 21:46:00,47.3,43.6,29.38,South,188,0.0,2.5,87,0.00,,,0.04,VWS V14.00,2013-01-29 02:46:00,
2013-01-28 21:50:00,47.3,43.6,29.38,SE,142,1.3,2.9,87,0.00,,,0.04,VWS V14.00,2013-01-29 02:50:00,
2013-01-28 21:52:00,47.1,43.5,29.38,SW,232,0.9,2.2,87,0.00,,,0.04,VWS V14.00,2013-01-29 02:52:00,
2013-01-28 21:55:00,47.1,43.2,29.38,SSE,165,2.0,2.5,86,0.00,,,0.04,VWS V14.00,2013-01-29 02:55:00,
2013-01-28 21:57:00,47.1,43.5,29.38,SW,232,2.2,2.2,87,0.00,,,0.04,VWS V14.00,2013-01-29 02:57:00,
2013-01-28 22:00:00,47.1,43.5,29.38,SSW,210,2.0,3.4,87,0.00,,,0.04,VWS V14.00,2013-01-29 03:00:00,
2013-01-28 22:02:00,47.1,44.0,29.38,SSW,210,1.6,2.7,89,0.00,,,0.04,VWS V14.00,2013-01-29 03:02:00,
2013-01-28 22:05:00,47.1,43.5,29.38,SSE,165,1.3,2.2,87,0.00,,,0.04,VWS V14.00,2013-01-29 03:05:00,
2013-01-28 22:07:00,46.9,43.9,29.38,South,188,1.3,2.0,89,0.00,,,0.04,VWS V14.00,2013-01-29 03:07:00,
2013-01-28 22:10:00,47.3,44.5,29.38,South,188,2.0,3.6,90,0.00,,,0.04,VWS V14.00,2013-01-29 03:10:00,
2013-01-28 22:12:00,46.8,43.7,29.38,South,188,1.1,2.2,89,0.00,,,0.04,VWS V14.00,2013-01-29 03:12:00,
2013-01-28 22:15:00,46.8,43.4,29.38,SSW,210,0.9,2.0,88,0.00,,,0.04,VWS V14.00,2013-01-29 03:15:00,
2013-01-28 22:17:00,46.8,44.0,29.38,ESE,120,1.1,2.9,90,0.00,,,0.04,VWS V14.00,2013-01-29 03:17:00,
2013-01-28 22:20:00,46.8,43.7,29.38,South,188,2.2,2.2,89,0.00,,,0.04,VWS V14.00,2013-01-29 03:20:00,
2013-01-28 22:22:00,46.8,44.0,29.38,South,188,2.5,2.5,90,0.00,,,0.04,VWS V14.00,2013-01-29 03:22:00,
2013-01-28 22:25:00,46.8,44.0,29.38,South,188,1.6,2.9,90,0.00,,,0.04,VWS V14.00,2013-01-29 03:25:00,
2013-01-28 22:27:00,46.9,44.2,29.38,South,188,0.0,2.5,90,0.00,,,0.04,VWS V14.00,2013-01-29 03:27:00,
2013-01-28 22:30:00,46.9,44.2,29.38,SSE,165,2.2,2.7,90,0.00,,,0.04,VWS V14.00,2013-01-29 03:30:00,
2013-01-28 22:32:00,46.6,43.5,29.38,SSE,165,0.0,0.9,89,0.00,,,0.04,VWS V14.00,2013-01-29 03:32:00,
2013-01-28 22:35:00,46.8,44.0,29.38,SW,232,0.9,2.5,90,0.00,,,0.04,VWS V14.00,2013-01-29 03:35:00,
2013-01-28 22:37:00,46.4,43.3,29.38,South,188,0.0,0.0,89,0.00,,,0.04,VWS V14.00,2013-01-29 03:37:00,
2013-01-28 22:40:00,46.4,43.3,29.38,SSE,165,0.0,0.9,89,0.00,,,0.04,VWS V14.00,2013-01-29 03:40:00,
2013-01-28 22:42:00,46.4,43.6,29.38,SW,232,1.1,1.1,90,0.00,,,0.04,VWS V14.00,2013-01-29 03:42:00,
2013-01-28 22:45:00,46.4,43.6,29.38,SSE,165,0.0,0.0,90,0.00,,,0.04,VWS V14.00,2013-01-29 03:45:00,
2013-01-28 22:47:00,46.4,43.6,29.38,WNW,300,0.0,2.2,90,0.00,,,0.04,VWS V14.00,2013-01-29 03:47:00,
2013-01-28 22:50:00,46.4,43.6,29.38,WSW,255,2.0,2.5,90,0.00,,,0.04,VWS V14.00,2013-01-29 03:50:00,
2013-01-28 22:52:00,46.0,43.6,29.38,South,188,2.0,2.9,91,0.00,,,0.04,VWS V14.00,2013-01-29 03:52:00,
2013-01-28 22:55:00,46.2,43.5,29.38,South,188,0.0,2.2,90,0.00,,,0.04,VWS V14.00,2013-01-29 03:55:00,
2013-01-28 22:58:00,46.2,43.7,29.38,SE,142,2.5,2.5,91,0.00,,,0.04,VWS V14.00,2013-01-29 03:58:00,
2013-01-28 23:00:00,46.0,43.6,29.38,SSE,165,0.0,2.9,91,0.00,,,0.04,VWS V14.00,2013-01-29 04:00:00,
2013-01-28 23:03:00,46.2,44.0,29.38,South,188,2.7,2.9,92,0.00,,,0.04,VWS V14.00,2013-01-29 04:03:00,
2013-01-28 23:05:00,46.2,44.0,29.38,South,188,0.0,2.5,92,0.00,,,0.04,VWS V14.00,2013-01-29 04:05:00,
2013-01-28 23:08:00,46.0,43.8,29.38,SSE,165,0.0,0.9,92,0.00,,,0.04,VWS V14.00,2013-01-29 04:08:00,
2013-01-28 23:10:00,46.2,44.0,29.38,SSE,165,0.9,2.9,92,0.00,,,0.04,VWS V14.00,2013-01-29 04:10:00,
2013-01-28 23:13:00,45.9,43.7,29.38,West,278,0.0,0.0,92,0.00,,,0.04,VWS V14.00,2013-01-29 04:13:00,
2013-01-28 23:15:00,46.0,43.8,29.38,SSW,210,0.0,0.9,92,0.00,,,0.04,VWS V14.00,2013-01-29 04:15:00,
2013-01-28 23:18:00,45.9,44.0,29.38,SSE,165,0.0,0.0,93,0.00,,,0.04,VWS V14.00,2013-01-29 04:18:00,
2013-01-28 23:20:00,45.9,43.7,29.38,SW,232,0.0,0.0,92,0.00,,,0.04,VWS V14.00,2013-01-29 04:20:00,
2013-01-28 23:23:00,46.0,44.4,29.38,SE,142,0.0,0.0,94,0.00,,,0.04,VWS V14.00,2013-01-29 04:23:00,
2013-01-28 23:25:00,45.9,44.0,29.38,SE,142,0.0,0.0,93,0.00,,,0.04,VWS V14.00,2013-01-29 04:25:00,
2013-01-28 23:28:00,46.0,44.4,29.38,WSW,255,0.0,3.6,94,0.00,,,0.04,VWS V14.00,2013-01-29 04:28:00,
2013-01-28 23:30:00,45.9,44.2,29.38,SE,142,1.1,2.7,94,0.00,,,0.04,VWS V14.00,2013-01-29 04:30:00,
2013-01-28 23:33:00,45.9,44.0,29.38,SE,142,1.3,1.3,93,0.00,,,0.04,VWS V14.00,2013-01-29 04:33:00,
2013-01-28 23:35:00,45.9,44.2,29.38,WSW,255,0.0,3.6,94,0.00,,,0.04,VWS V14.00,2013-01-29 04:35:00,
2013-01-28 23:38:00,46.0,44.4,29.38,South,188,2.5,2.5,94,0.00,,,0.04,VWS V14.00,2013-01-29 04:38:00,
2013-01-28 23:40:00,46.0,44.1,29.38,SSE,165,2.0,2.5,93,0.00,,,0.04,VWS V14.00,2013-01-29 04:40:00,
2013-01-28 23:43:00,46.0,44.4,29.38,SW,232,2.2,3.1,94,0.00,,,0.04,VWS V14.00,2013-01-29 04:43:00,
2013-01-28 23:45:00,46.0,44.4,29.38,South,188,1.3,2.5,94,0.00,,,0.04,VWS V14.00,2013-01-29 04:45:00,
2013-01-28 23:48:00,46.2,44.6,29.38,SE,142,2.9,3.6,94,0.00,,,0.04,VWS V14.00,2013-01-29 04:48:00,
2013-01-28 23:50:00,46.0,44.4,29.38,East,98,0.0,3.1,94,0.00,,,0.04,VWS V14.00,2013-01-29 04:50:00,
2013-01-28 23:53:00,46.0,44.4,29.38,SSE,165,0.0,2.9,94,0.00,,,0.04,VWS V14.00,2013-01-29 04:53:00,
2013-01-28 23:55:00,46.2,44.9,29.38,SE,142,1.3,3.6,95,0.00,,,0.04,VWS V14.00,2013-01-29 04:55:00,
2013-01-28 23:58:00,46.0,44.4,29.38,South,188,0.0,2.5,94,0.00,,,0.00,VWS V14.00,2013-01-29 04:58:00,